createdAt,value
2019-03-12T00:00:12.785Z,101894.27
2019-03-12T00:02:40.977Z,101890.89
2019-03-12T00:05:09.885Z,101885.07
2019-03-12T00:07:38.069Z,101884.66
2019-03-12T00:10:08.283Z,101884.33
2019-03-12T00:15:12.696Z,101893.84
2019-03-12T00:17:41.159Z,101899.05
2019-03-12T00:20:09.330Z,101894.37
2019-03-12T00:22:37.521Z,101897.56
2019-03-12T00:25:05.843Z,101905.38
2019-03-12T00:27:34.010Z,101905.56
2019-03-12T00:30:02.938Z,101908.34
2019-03-12T00:32:31.141Z,101919.13
2019-03-12T00:34:59.378Z,101915.48
2019-03-12T00:37:27.566Z,101909.92
2019-03-12T00:39:55.728Z,101909.08
2019-03-12T00:42:23.914Z,101903.16
2019-03-12T00:44:52.156Z,101899.61
2019-03-12T00:47:20.353Z,101898.36
2019-03-12T00:49:49.250Z,101888.07
2019-03-12T00:52:17.456Z,101888.09
2019-03-12T00:54:45.654Z,101885.05
2019-03-12T00:57:13.831Z,101882.03
2019-03-12T00:59:42.246Z,101882.70
2019-03-12T01:02:10.724Z,101883.69
2019-03-12T01:04:38.903Z,101869.15
2019-03-12T01:07:07.085Z,101871.62
2019-03-12T01:09:35.249Z,101868.73
2019-03-12T01:12:03.430Z,101876.23
2019-03-12T01:14:31.900Z,101873.13
2019-03-12T01:17:00.091Z,101872.11
2019-03-12T01:19:28.367Z,101876.05
2019-03-12T01:21:56.543Z,101864.02
2019-03-12T01:24:24.719Z,101866.88
2019-03-12T01:26:52.905Z,101872.30
2019-03-12T01:29:21.074Z,101877.96
2019-03-12T01:31:49.251Z,101875.03
2019-03-12T01:34:17.445Z,101870.05
2019-03-12T01:36:45.608Z,101867.30
2019-03-12T01:39:13.779Z,101860.59
2019-03-12T01:41:41.957Z,101853.77
2019-03-12T01:44:10.144Z,101856.86
2019-03-12T01:46:38.362Z,101854.58
2019-03-12T01:49:06.531Z,101849.34
2019-03-12T01:51:34.719Z,101850.01
2019-03-12T01:54:02.904Z,101848.41
2019-03-12T01:56:31.097Z,101847.06
2019-03-12T01:58:59.271Z,101844.17
2019-03-12T02:01:27.449Z,101840.25
2019-03-12T02:03:55.630Z,101838.83
2019-03-12T02:06:23.808Z,101843.09
2019-03-12T02:08:52.001Z,101840.77
2019-03-12T02:11:20.170Z,101836.46
2019-03-12T02:13:48.358Z,101838.69
2019-03-12T02:16:16.556Z,101835.58
2019-03-12T02:18:45.016Z,101833.20
2019-03-12T02:21:13.198Z,101828.02
2019-03-12T02:23:41.361Z,101823.75
2019-03-12T02:26:09.541Z,101822.77
2019-03-12T02:28:37.709Z,101823.87
2019-03-12T02:31:05.899Z,101819.61
2019-03-12T02:33:34.063Z,101822.49
2019-03-12T02:36:02.273Z,101820.25
2019-03-12T02:38:30.802Z,101809.49
2019-03-12T02:40:59.297Z,101804.70
2019-03-12T02:43:27.499Z,101799.15
2019-03-12T02:45:55.687Z,101795.75
2019-03-12T02:48:23.874Z,101789.77
2019-03-12T02:50:52.054Z,101794.89
2019-03-12T02:53:20.241Z,101796.06
2019-03-12T02:55:48.464Z,101798.70
2019-03-12T02:58:16.689Z,101797.30
2019-03-12T03:00:44.877Z,101789.84
2019-03-12T03:03:13.061Z,101780.81
2019-03-12T03:05:45.668Z,101786.34
2019-03-12T03:08:14.721Z,101785.90
2019-03-12T03:10:42.895Z,101789.98
2019-03-12T03:13:11.059Z,101785.20
2019-03-12T03:15:46.574Z,101787.48
2019-03-12T03:18:14.746Z,101793.06
2019-03-12T03:20:42.910Z,101793.43
2019-03-12T03:23:11.435Z,101790.86
2019-03-12T03:25:39.648Z,101791.09
2019-03-12T03:28:07.826Z,101792.91
2019-03-12T03:30:35.985Z,101789.05
2019-03-12T03:33:04.249Z,101782.31
2019-03-12T03:35:32.481Z,101782.31
2019-03-12T03:38:00.982Z,101777.98
2019-03-12T03:40:29.462Z,101778.03
2019-03-12T03:42:57.671Z,101776.13
2019-03-12T03:45:25.861Z,101766.41
2019-03-12T03:47:54.038Z,101760.66
2019-03-12T03:50:22.203Z,101756.88
2019-03-12T03:52:50.468Z,101761.84
2019-03-12T03:55:22.757Z,101748.47
2019-03-12T03:57:51.190Z,101755.45
2019-03-12T04:00:24.367Z,101750.83
2019-03-12T04:02:52.856Z,101743.64
2019-03-12T04:05:21.060Z,101738.30
2019-03-12T04:07:49.252Z,101737.19
2019-03-12T04:10:17.408Z,101738.27
2019-03-12T04:12:45.703Z,101732.91
2019-03-12T04:15:17.024Z,101725.77
2019-03-12T04:17:45.254Z,101724.87
2019-03-12T04:20:18.161Z,101717.30
2019-03-12T04:22:46.759Z,101710.22
2019-03-12T04:25:14.918Z,101704.98
2019-03-12T04:27:43.128Z,101709.23
2019-03-12T04:30:16.197Z,101704.49
2019-03-12T04:32:44.664Z,101707.57
2019-03-12T04:35:15.761Z,101706.05
2019-03-12T04:37:44.270Z,101698.53
2019-03-12T04:40:13.299Z,101695.75
2019-03-12T04:42:41.531Z,101699.80
2019-03-12T04:45:15.170Z,101695.00
2019-03-12T04:47:43.326Z,101688.31
2019-03-12T04:50:11.825Z,101693.68
2019-03-12T04:52:40.023Z,101689.75
2019-03-12T04:55:13.509Z,101676.91
2019-03-12T04:57:41.698Z,101674.59
2019-03-12T05:00:15.337Z,101669.70
2019-03-12T05:02:43.556Z,101665.82
2019-03-12T05:05:12.339Z,101667.08
2019-03-12T05:07:40.543Z,101657.81
2019-03-12T05:10:11.621Z,101655.41
2019-03-12T05:12:40.094Z,101655.47
2019-03-12T05:15:11.072Z,101653.06
2019-03-12T05:17:39.244Z,101650.52
2019-03-12T05:20:10.271Z,101643.05
2019-03-12T05:22:38.458Z,101647.14
2019-03-12T05:25:09.469Z,101641.80
2019-03-12T05:27:37.941Z,101636.94
2019-03-12T05:30:14.931Z,101642.06
2019-03-12T05:32:43.139Z,101632.70
2019-03-12T05:35:11.315Z,101627.97
2019-03-12T05:37:39.515Z,101626.94
2019-03-12T05:40:10.250Z,101620.84
2019-03-12T05:42:38.522Z,101621.58
2019-03-12T05:45:14.626Z,101622.10
2019-03-12T05:47:42.803Z,101631.93
2019-03-12T05:50:13.622Z,101631.19
2019-03-12T05:52:41.786Z,101621.88
2019-03-12T05:55:11.428Z,101631.98
2019-03-12T05:57:39.587Z,101618.67
2019-03-12T06:00:16.820Z,101617.89
2019-03-12T06:02:45.247Z,101611.08
2019-03-12T06:05:13.441Z,101606.39
2019-03-12T06:07:41.630Z,101606.91
2019-03-12T06:10:13.709Z,101602.78
2019-03-12T06:12:41.898Z,101607.28
2019-03-12T06:15:12.289Z,101599.23
2019-03-12T06:17:40.514Z,101595.66
2019-03-12T06:20:12.179Z,101583.86
2019-03-12T06:22:40.396Z,101591.33
2019-03-12T06:25:08.555Z,101589.94
2019-03-12T06:27:36.738Z,101593.56
2019-03-12T06:30:13.578Z,101585.10
2019-03-12T06:32:52.404Z,101582.74
2019-03-12T06:35:22.230Z,101569.98
2019-03-12T06:37:55.102Z,101565.29
2019-03-12T06:40:27.875Z,101569.02
2019-03-12T06:42:57.744Z,101555.74
2019-03-12T06:45:29.338Z,101553.69
2019-03-12T06:48:05.110Z,101548.30
2019-03-12T06:50:38.111Z,101546.48
2019-03-12T06:53:24.478Z,101547.70
2019-03-12T06:56:06.472Z,101533.16
2019-03-12T06:58:54.069Z,101527.13
2019-03-12T07:01:24.323Z,101525.55
2019-03-12T07:03:57.165Z,101523.95
2019-03-12T07:06:30.378Z,101521.41
2019-03-12T07:09:09.894Z,101517.48
2019-03-12T07:11:42.621Z,101509.97
2019-03-12T07:14:31.822Z,101499.89
2019-03-12T07:17:11.102Z,101495.03
2019-03-12T07:19:44.027Z,101489.95
2019-03-12T07:22:20.220Z,101490.06
2019-03-12T07:24:50.110Z,101478.45
2019-03-12T07:27:29.169Z,101473.94
2019-03-12T07:30:01.911Z,101460.80
2019-03-12T07:32:34.690Z,101455.05
2019-03-12T07:35:04.870Z,101445.91
2019-03-12T07:37:51.585Z,101452.05
2019-03-12T07:40:30.733Z,101442.39
2019-03-12T07:43:00.829Z,101432.38
2019-03-12T07:45:33.615Z,101423.92
2019-03-12T07:48:03.459Z,101423.89
2019-03-12T07:50:42.555Z,101426.06
2019-03-12T07:53:12.363Z,101408.34
2019-03-12T07:55:51.433Z,101402.62
2019-03-12T07:58:35.662Z,101406.00
2019-03-12T08:01:04.250Z,101401.09
2019-03-12T08:03:37.208Z,101398.52
2019-03-12T08:06:13.190Z,101394.31
2019-03-12T08:08:45.717Z,101397.11
2019-03-12T08:11:24.250Z,101396.05
2019-03-12T08:13:54.059Z,101391.97
2019-03-12T08:16:24.044Z,101386.79
2019-03-12T08:19:09.162Z,101379.55
2019-03-12T08:21:41.490Z,101367.03
2019-03-12T08:24:29.482Z,101365.95
2019-03-12T08:27:02.388Z,101353.04
2019-03-12T08:29:35.127Z,101343.22
2019-03-12T08:32:16.659Z,101347.88
2019-03-12T08:35:03.012Z,101334.34
2019-03-12T08:37:41.862Z,101318.30
2019-03-12T08:40:11.779Z,101314.79
2019-03-12T08:42:54.879Z,101308.80
2019-03-12T08:45:36.694Z,101304.05
2019-03-12T08:48:15.767Z,101307.18
2019-03-12T08:50:48.678Z,101310.60
2019-03-12T08:53:24.711Z,101316.04
2019-03-12T08:55:57.715Z,101306.72
2019-03-12T08:58:36.227Z,101286.55
2019-03-12T09:01:06.238Z,101286.56
2019-03-12T09:03:52.665Z,101279.35
2019-03-12T09:06:34.242Z,101278.95
2019-03-12T09:09:04.073Z,101273.08
2019-03-12T09:11:50.546Z,101272.59
2019-03-12T09:14:20.385Z,101261.55
2019-03-12T09:17:02.409Z,101260.09
2019-03-12T09:19:38.071Z,101243.69
2019-03-12T09:22:26.279Z,101237.47
2019-03-12T09:25:04.619Z,101227.45
2019-03-12T09:27:50.052Z,101222.28
2019-03-12T09:30:25.887Z,101213.33
2019-03-12T09:33:07.497Z,101216.59
2019-03-12T09:35:37.363Z,101213.15
2019-03-12T09:38:07.245Z,101203.87
2019-03-12T09:40:37.082Z,101193.27
2019-03-12T09:43:06.907Z,101180.99
2019-03-12T09:45:39.160Z,101177.33
2019-03-12T09:48:09.013Z,101176.05
2019-03-12T09:50:51.211Z,101165.28
2019-03-12T09:53:27.374Z,101157.63
2019-03-12T09:56:03.222Z,101138.29
2019-03-12T09:58:50.982Z,101144.62
2019-03-12T10:01:39.021Z,101131.14
2019-03-12T10:04:09.363Z,101125.13
2019-03-12T10:06:51.473Z,101123.02
2019-03-12T10:09:21.655Z,101111.70
2019-03-12T10:11:56.987Z,101121.77
2019-03-12T10:14:27.122Z,101123.51
2019-03-12T10:17:05.902Z,101115.11
2019-03-12T10:19:35.758Z,101105.06
2019-03-12T10:22:08.436Z,101090.91
2019-03-12T10:24:44.670Z,101082.34
2019-03-12T10:27:14.496Z,101077.66
2019-03-12T10:29:44.309Z,101093.02
2019-03-12T10:32:17.235Z,101081.03
2019-03-12T10:34:52.862Z,101074.84
2019-03-12T10:37:25.365Z,101054.27
2019-03-12T10:40:13.850Z,101048.91
2019-03-12T10:42:52.148Z,101039.75
2019-03-12T10:45:30.983Z,101028.14
2019-03-12T10:48:03.479Z,101026.86
2019-03-12T10:50:31.814Z,101021.02
2019-03-12T10:53:00.316Z,101019.59
2019-03-12T10:55:28.513Z,101010.13
2019-03-12T10:57:56.709Z,100998.21
2019-03-12T11:00:24.906Z,100998.83
2019-03-12T11:02:53.065Z,100993.95
2019-03-12T11:05:21.289Z,100973.39
2019-03-12T11:07:49.758Z,100957.41
2019-03-12T11:10:19.094Z,100960.96
2019-03-12T11:12:47.484Z,100945.37
2019-03-12T11:15:16.644Z,100950.55
2019-03-12T11:17:49.950Z,100938.56
2019-03-12T11:20:19.971Z,100945.58
2019-03-12T11:22:48.177Z,100937.36
2019-03-12T11:25:26.585Z,100924.99
2019-03-12T11:27:46.529Z,100928.95
2019-03-12T11:30:16.951Z,100922.34
2019-03-12T11:32:45.130Z,100919.21
2019-03-12T11:35:13.689Z,100919.25
2019-03-12T11:37:41.901Z,100909.66
2019-03-12T11:40:24.180Z,100899.98
2019-03-12T11:42:52.414Z,100883.91
2019-03-12T11:45:34.893Z,100880.80
2019-03-12T11:47:50.902Z,100879.28
2019-03-12T11:50:20.979Z,100872.80
2019-03-12T11:52:56.335Z,100864.99
2019-03-12T11:55:19.369Z,100861.63
2019-03-12T11:57:48.409Z,100850.31
2019-03-12T12:00:23.962Z,100847.83
2019-03-12T12:02:59.895Z,100826.98
2019-03-12T12:05:22.252Z,100822.55
2019-03-12T12:07:50.764Z,100821.79
2019-03-12T12:10:19.440Z,100805.22
2019-03-12T12:12:47.673Z,100789.72
2019-03-12T12:15:16.601Z,100782.56
2019-03-12T12:17:44.826Z,100780.31
2019-03-12T12:20:14.559Z,100780.48
2019-03-12T12:22:43.078Z,100768.48
2019-03-12T12:25:18.483Z,100756.89
2019-03-12T12:27:46.766Z,100756.52
2019-03-12T12:30:22.830Z,100743.42
2019-03-12T12:32:51.006Z,100742.08
2019-03-12T12:35:19.535Z,100742.86
2019-03-12T12:37:47.715Z,100729.30
2019-03-12T12:40:17.343Z,100717.70
2019-03-12T12:42:45.610Z,100707.94
2019-03-12T12:45:28.669Z,100709.75
2019-03-12T12:47:57.174Z,100695.78
2019-03-12T12:50:25.851Z,100700.45
2019-03-12T12:52:54.043Z,100684.29
2019-03-12T12:55:22.517Z,100683.22
2019-03-12T12:57:51.001Z,100670.02
2019-03-12T13:00:21.431Z,100664.52
2019-03-12T13:02:49.705Z,100655.84
2019-03-12T13:05:19.802Z,100649.06
2019-03-12T13:07:48.339Z,100639.05
2019-03-12T13:10:28.164Z,100635.73
2019-03-12T13:12:56.409Z,100631.42
2019-03-12T13:15:24.778Z,100611.19
2019-03-12T13:17:52.955Z,100597.89
2019-03-12T13:20:21.443Z,100591.93
2019-03-12T13:22:49.718Z,100587.19
2019-03-12T13:25:19.791Z,100575.94
2019-03-12T13:27:48.049Z,100562.06
2019-03-12T13:30:18.938Z,100551.70
2019-03-12T13:32:47.529Z,100550.08
2019-03-12T13:35:16.967Z,100543.41
2019-03-12T13:37:45.139Z,100529.63
2019-03-12T13:40:18.633Z,100517.45
2019-03-12T13:42:46.882Z,100507.45
2019-03-12T13:45:18.015Z,100505.39
2019-03-12T13:47:46.400Z,100495.08
2019-03-12T13:50:14.837Z,100486.27
2019-03-12T13:52:43.272Z,100474.09
2019-03-12T13:55:13.874Z,100467.05
2019-03-12T13:57:42.452Z,100469.67
2019-03-12T14:00:14.137Z,100459.33
2019-03-12T14:02:42.412Z,100446.77
2019-03-12T14:05:11.794Z,100431.98
2019-03-12T14:07:40.006Z,100424.69
2019-03-12T14:10:17.563Z,100422.91
2019-03-12T14:12:45.869Z,100409.14
2019-03-12T14:15:19.850Z,100396.76
2019-03-12T14:17:48.044Z,100390.04
2019-03-12T14:20:42.684Z,100387.86
2019-03-12T14:23:13.933Z,100380.30
2019-03-12T14:25:42.202Z,100372.78
2019-03-12T14:28:10.402Z,100360.47
2019-03-12T14:30:38.986Z,100361.83
2019-03-12T14:33:07.184Z,100349.37
2019-03-12T14:35:35.747Z,100338.96
2019-03-12T14:38:03.995Z,100328.01
2019-03-12T14:40:32.259Z,100310.75
2019-03-12T14:43:00.454Z,100301.91
2019-03-12T14:45:29.560Z,100301.72
2019-03-12T14:47:58.078Z,100294.58
2019-03-12T14:50:28.105Z,100277.75
2019-03-12T14:53:02.341Z,100269.45
2019-03-12T14:55:30.771Z,100265.97
2019-03-12T14:58:00.979Z,100260.91
2019-03-12T15:00:29.218Z,100252.23
2019-03-12T15:02:57.403Z,100239.12
2019-03-12T15:05:25.672Z,100241.03
2019-03-12T15:07:54.202Z,100232.92
2019-03-12T15:10:22.383Z,100235.96
2019-03-12T15:12:50.579Z,100226.75
2019-03-12T15:15:19.107Z,100221.30
2019-03-12T15:17:47.278Z,100213.69
2019-03-12T15:20:15.915Z,100194.58
2019-03-12T15:22:44.110Z,100181.84
2019-03-12T15:25:14.178Z,100176.02
2019-03-12T15:27:42.742Z,100172.14
2019-03-12T15:30:17.059Z,100154.77
2019-03-12T15:32:45.254Z,100156.78
2019-03-12T15:35:13.480Z,100140.03
2019-03-12T15:37:41.668Z,100137.83
2019-03-12T15:40:13.662Z,100122.95
2019-03-12T15:42:41.875Z,100118.85
2019-03-12T15:45:12.090Z,100098.95
2019-03-12T15:47:40.272Z,100092.19
2019-03-12T15:50:13.651Z,100082.88
2019-03-12T15:52:41.821Z,100068.42
2019-03-12T15:55:10.269Z,100065.09
2019-03-12T15:57:38.435Z,100049.12
2019-03-12T16:00:15.404Z,100028.63
2019-03-12T16:02:43.629Z,100041.58
2019-03-12T16:05:11.958Z,100026.68
2019-03-12T16:07:40.149Z,100009.10
2019-03-12T16:10:13.689Z,100009.02
2019-03-12T16:12:41.899Z,99996.33
2019-03-12T16:15:11.521Z,99984.81
2019-03-12T16:17:39.714Z,99978.37
2019-03-12T16:20:13.211Z,99971.88
2019-03-12T16:22:41.657Z,99953.78
2019-03-12T16:25:10.461Z,99956.23
2019-03-12T16:27:38.637Z,99960.42
2019-03-12T16:30:12.444Z,99947.89
2019-03-12T16:32:40.642Z,99951.78
2019-03-12T16:35:10.460Z,99943.95
2019-03-12T16:37:38.611Z,99930.77
2019-03-12T16:40:13.436Z,99944.56
2019-03-12T16:42:41.602Z,99945.44
2019-03-12T16:45:12.007Z,99939.70
2019-03-12T16:47:40.177Z,99923.24
2019-03-12T16:50:16.301Z,99913.06
2019-03-12T16:52:44.727Z,99893.16
2019-03-12T16:55:15.087Z,99883.39
2019-03-12T16:57:43.298Z,99874.28
2019-03-12T17:00:17.019Z,99872.23
2019-03-12T17:02:45.603Z,99863.84
2019-03-12T17:05:14.235Z,99859.64
2019-03-12T17:07:42.430Z,99870.66
2019-03-12T17:10:22.890Z,99869.64
2019-03-12T17:12:51.074Z,99861.64
2019-03-12T17:15:25.110Z,99863.86
2019-03-12T17:17:53.586Z,99840.78
2019-03-12T17:20:21.985Z,99826.33
2019-03-12T17:22:51.454Z,99835.82
2019-03-12T17:25:19.603Z,99824.92
2019-03-12T17:27:47.790Z,99807.11
2019-03-12T17:30:22.735Z,99805.84
2019-03-12T17:32:50.887Z,99803.13
2019-03-12T17:35:30.583Z,99795.22
2019-03-12T17:37:58.739Z,99800.76
2019-03-12T17:40:27.425Z,99805.63
2019-03-12T17:42:55.892Z,99790.23
2019-03-12T17:45:25.763Z,99775.88
2019-03-12T17:47:54.310Z,99771.08
2019-03-12T17:50:22.512Z,99768.80
2019-03-12T17:52:50.679Z,99758.41
2019-03-12T17:55:18.842Z,99750.69
2019-03-12T17:57:50.347Z,99744.00
2019-03-12T18:00:32.280Z,99733.84
2019-03-12T18:03:00.857Z,99712.61
2019-03-12T18:05:29.424Z,99713.37
2019-03-12T18:07:57.663Z,99713.50
2019-03-12T18:10:26.169Z,99706.45
2019-03-12T18:12:54.379Z,99696.56
2019-03-12T18:15:22.855Z,99683.53
2019-03-12T18:17:51.080Z,99688.95
2019-03-12T18:20:20.528Z,99698.55
2019-03-12T18:22:48.877Z,99683.64
2019-03-12T18:25:33.652Z,99666.41
2019-03-12T18:28:01.840Z,99693.63
2019-03-12T18:30:30.012Z,99673.62
2019-03-12T18:32:58.199Z,99661.84
2019-03-12T18:35:26.422Z,99648.45
2019-03-12T18:37:54.641Z,99640.97
2019-03-12T18:40:27.104Z,99637.94
2019-03-12T18:42:55.299Z,99649.87
2019-03-12T18:45:29.356Z,99637.00
2019-03-12T18:47:57.575Z,99637.63
2019-03-12T18:50:25.766Z,99624.53
2019-03-12T18:52:54.202Z,99612.20
2019-03-12T18:55:31.130Z,99621.03
2019-03-12T18:57:59.295Z,99576.19
2019-03-12T19:00:27.490Z,99581.77
2019-03-12T19:02:55.657Z,99586.20
2019-03-12T19:05:24.173Z,99601.31
2019-03-12T19:07:52.437Z,99578.30
2019-03-12T19:10:20.757Z,99578.65
2019-03-12T19:12:48.927Z,99581.17
2019-03-12T19:15:17.796Z,99579.94
2019-03-12T19:17:46.194Z,99560.13
2019-03-12T19:20:18.387Z,99561.45
2019-03-12T19:22:46.916Z,99562.12
2019-03-12T19:25:22.804Z,99547.41
2019-03-12T19:27:59.758Z,99544.33
2019-03-12T19:30:21.226Z,99534.02
2019-03-12T19:33:00.290Z,99538.16
2019-03-12T19:35:30.123Z,99526.86
2019-03-12T19:37:59.810Z,99522.84
2019-03-12T19:40:34.230Z,99509.08
2019-03-12T19:43:02.411Z,99510.34
2019-03-12T19:45:30.886Z,99500.13
2019-03-12T19:47:59.206Z,99494.33
2019-03-12T19:50:27.725Z,99499.46
2019-03-12T19:52:56.230Z,99504.50
2019-03-12T19:55:27.474Z,99484.18
2019-03-12T19:57:55.686Z,99484.21
2019-03-12T20:00:25.520Z,99485.09
2019-03-12T20:02:54.841Z,99497.42
2019-03-12T20:05:23.087Z,99490.61
2019-03-12T20:07:51.278Z,99485.34
2019-03-12T20:10:57.420Z,99486.52
2019-03-12T20:13:45.307Z,99479.83
2019-03-12T20:16:34.227Z,99490.98
2019-03-12T20:19:17.630Z,99486.82
2019-03-12T20:22:22.547Z,99492.27
2019-03-12T20:25:22.748Z,99491.91
2019-03-12T20:28:10.457Z,99480.29
2019-03-12T20:30:50.847Z,99487.14
2019-03-12T20:33:44.765Z,99492.27
2019-03-12T20:36:49.746Z,99497.91
2019-03-12T20:39:46.419Z,99507.24
2019-03-12T20:42:52.654Z,99514.01
2019-03-12T20:45:55.719Z,99504.69
2019-03-12T20:48:46.453Z,99508.48
2019-03-12T20:51:38.728Z,99510.73
2019-03-12T20:54:40.134Z,99519.41
2019-03-12T20:57:44.772Z,99513.09
2019-03-12T21:00:43.172Z,99516.98
2019-03-12T21:03:45.843Z,99523.05
2019-03-12T21:06:26.291Z,99513.97
2019-03-12T21:09:23.131Z,99534.33
2019-03-12T21:12:27.710Z,99537.70
2019-03-12T21:15:34.221Z,99541.59
2019-03-12T21:18:39.678Z,99547.73
2019-03-12T21:21:30.112Z,99563.88
2019-03-12T21:24:07.398Z,99574.87
2019-03-12T21:26:50.271Z,99587.80
2019-03-12T21:29:30.438Z,99621.29
2019-03-12T21:31:58.703Z,99670.03
2019-03-12T21:34:26.906Z,99681.70
2019-03-12T21:36:55.089Z,99684.88
2019-03-12T21:39:23.346Z,99721.00
2019-03-12T21:41:51.506Z,99737.24
2019-03-12T21:44:19.842Z,99761.52
2019-03-12T21:46:48.122Z,99782.44
2019-03-12T21:49:16.310Z,99798.20
2019-03-12T21:51:44.472Z,99800.95
2019-03-12T21:54:12.649Z,99798.53
2019-03-12T21:56:40.813Z,99815.20
2019-03-12T21:59:09.011Z,99817.87
2019-03-12T22:01:37.187Z,99828.80
2019-03-12T22:04:05.770Z,99833.14
2019-03-12T22:06:34.248Z,99831.98
2019-03-12T22:09:02.989Z,99836.78
2019-03-12T22:11:31.425Z,99837.98
2019-03-12T22:13:59.646Z,99837.69
2019-03-12T22:16:27.894Z,99838.76
2019-03-12T22:18:56.451Z,99824.86
2019-03-12T22:21:26.566Z,99834.23
2019-03-12T22:23:54.763Z,99857.77
2019-03-12T22:26:22.939Z,99858.23
2019-03-12T22:28:51.139Z,99859.84
2019-03-12T22:31:19.578Z,99859.88
2019-03-12T22:33:47.739Z,99861.31
2019-03-12T22:36:15.902Z,99880.19
2019-03-12T22:38:44.105Z,99882.82
2019-03-12T22:41:12.558Z,99885.01
2019-03-12T22:43:41.047Z,99881.10
2019-03-12T22:46:09.234Z,99888.23
2019-03-12T22:48:37.394Z,99893.73
2019-03-12T22:51:05.641Z,99896.44
2019-03-12T22:53:33.835Z,99899.98
2019-03-12T22:56:01.999Z,99909.01
2019-03-12T22:58:30.186Z,99910.91
2019-03-12T23:00:58.423Z,99913.70
2019-03-12T23:03:26.598Z,99921.61
2019-03-12T23:05:54.787Z,99926.86
2019-03-12T23:08:22.990Z,99932.42
2019-03-12T23:10:51.151Z,99931.87
2019-03-12T23:13:19.420Z,99931.26
2019-03-12T23:15:47.583Z,99930.06
2019-03-12T23:18:16.079Z,99940.53
2019-03-12T23:20:44.246Z,99940.37
2019-03-12T23:23:12.731Z,99940.70
2019-03-12T23:25:40.918Z,99952.55
2019-03-12T23:28:09.082Z,99961.06
2019-03-12T23:30:37.561Z,99960.21
2019-03-12T23:33:06.138Z,99960.75
2019-03-12T23:35:34.462Z,99968.21
2019-03-12T23:38:02.995Z,99974.53
2019-03-12T23:40:31.482Z,99977.38
2019-03-12T23:43:00.058Z,99980.42
2019-03-12T23:45:28.549Z,99992.34
2019-03-12T23:47:56.736Z,99995.78
2019-03-12T23:50:25.398Z,100003.59
2019-03-12T23:52:53.898Z,100004.00
2019-03-12T23:55:22.142Z,100008.21
2019-03-12T23:57:50.390Z,100017.51
